createdAt,value
2019-03-21T00:00:28.736Z,10.80
2019-03-21T00:03:05.012Z,10.77
2019-03-21T00:05:41.724Z,10.76
2019-03-21T00:08:17.549Z,10.76
2019-03-21T00:12:06.449Z,10.76
2019-03-21T00:15:06.715Z,10.70
2019-03-21T00:18:02.982Z,10.67
2019-03-21T00:20:41.232Z,10.65
2019-03-21T00:23:19.406Z,10.54
2019-03-21T00:25:57.668Z,10.51
2019-03-21T00:28:35.890Z,10.55
2019-03-21T00:31:12.643Z,10.52
2019-03-21T00:33:49.291Z,10.66
2019-03-21T00:36:27.574Z,10.64
2019-03-21T00:39:04.807Z,10.57
2019-03-21T00:41:40.660Z,10.67
2019-03-21T00:44:18.426Z,10.68
2019-03-21T00:46:54.035Z,10.67
2019-03-21T00:49:29.803Z,10.66
2019-03-21T00:52:05.492Z,10.53
2019-03-21T00:54:42.175Z,10.59
2019-03-21T00:57:17.923Z,10.60
2019-03-21T00:59:53.799Z,10.51
2019-03-21T01:02:29.567Z,10.50
2019-03-21T01:05:05.619Z,10.55
2019-03-21T01:07:41.431Z,10.56
2019-03-21T01:10:18.356Z,10.49
2019-03-21T01:12:54.087Z,10.57
2019-03-21T01:15:29.714Z,10.79
2019-03-21T01:18:06.063Z,10.66
2019-03-21T01:20:42.093Z,10.64
2019-03-21T01:23:17.951Z,10.67
2019-03-21T01:25:55.127Z,10.67
2019-03-21T01:28:30.779Z,10.63
2019-03-21T01:31:08.504Z,10.65
2019-03-21T01:33:44.301Z,10.74
2019-03-21T01:36:21.689Z,10.77
2019-03-21T01:38:57.553Z,10.71
2019-03-21T01:41:33.384Z,10.58
2019-03-21T01:44:09.027Z,10.40
2019-03-21T01:46:44.810Z,10.46
2019-03-21T01:49:20.549Z,10.39
2019-03-21T01:51:56.233Z,10.21
2019-03-21T01:54:32.338Z,10.11
2019-03-21T01:57:08.067Z,10.07
2019-03-21T01:59:43.788Z,10.01
2019-03-21T02:02:20.673Z,9.90
2019-03-21T02:04:56.465Z,9.73
2019-03-21T02:07:32.340Z,9.61
2019-03-21T02:10:11.012Z,9.50
2019-03-21T02:12:46.642Z,9.54
2019-03-21T02:15:22.580Z,9.51
2019-03-21T02:17:58.472Z,9.54
2019-03-21T02:20:34.401Z,9.42
2019-03-21T02:23:10.031Z,9.41
2019-03-21T02:25:46.026Z,9.42
2019-03-21T02:28:21.669Z,9.47
2019-03-21T02:30:57.296Z,9.51
2019-03-21T02:33:34.590Z,9.61
2019-03-21T02:36:10.358Z,9.76
2019-03-21T02:38:46.004Z,9.90
2019-03-21T02:41:25.199Z,9.94
2019-03-21T02:43:59.475Z,9.90
2019-03-21T02:46:35.254Z,9.91
2019-03-21T02:49:11.002Z,9.97
2019-03-21T02:51:46.670Z,10.00
2019-03-21T02:54:22.472Z,10.10
2019-03-21T02:56:58.233Z,9.85
2019-03-21T02:59:34.199Z,9.90
2019-03-21T03:02:09.805Z,9.99
2019-03-21T03:04:45.513Z,9.98
2019-03-21T03:07:21.295Z,10.06
2019-03-21T03:09:57.096Z,10.10
2019-03-21T03:12:32.826Z,9.98
2019-03-21T03:15:21.922Z,9.98
2019-03-21T03:17:49.224Z,10.01
2019-03-21T03:20:25.003Z,9.94
2019-03-21T03:23:00.682Z,9.83
2019-03-21T03:25:36.617Z,9.75
2019-03-21T03:28:16.607Z,9.65
2019-03-21T03:30:52.979Z,9.63
2019-03-21T03:33:28.979Z,9.56
2019-03-21T03:36:05.028Z,9.55
2019-03-21T03:38:43.553Z,9.42
2019-03-21T03:41:19.596Z,9.43
2019-03-21T03:43:55.193Z,9.37
2019-03-21T03:46:31.162Z,9.46
2019-03-21T03:49:07.849Z,9.41
2019-03-21T03:51:43.625Z,9.50
2019-03-21T03:54:19.430Z,9.54
2019-03-21T03:56:55.233Z,9.52
2019-03-21T03:59:30.998Z,9.61
2019-03-21T04:02:06.735Z,9.48
2019-03-21T04:04:42.696Z,9.71
2019-03-21T04:07:19.639Z,9.62
2019-03-21T04:09:55.342Z,9.75
2019-03-21T04:12:31.216Z,9.63
2019-03-21T04:15:11.249Z,9.70
2019-03-21T04:17:47.088Z,9.49
2019-03-21T04:20:25.408Z,9.61
2019-03-21T04:23:01.801Z,9.63
2019-03-21T04:25:49.218Z,9.66
2019-03-21T04:28:24.937Z,9.62
2019-03-21T04:31:00.664Z,9.46
2019-03-21T04:33:38.925Z,9.66
2019-03-21T04:36:16.541Z,9.59
2019-03-21T04:38:52.345Z,9.53
2019-03-21T04:41:28.228Z,9.54
2019-03-21T04:44:03.991Z,9.60
2019-03-21T04:46:39.778Z,9.45
2019-03-21T04:49:25.999Z,9.53
2019-03-21T04:52:13.834Z,9.56
2019-03-21T04:54:49.658Z,9.56
2019-03-21T04:57:32.522Z,9.57
2019-03-21T05:00:04.227Z,9.60
2019-03-21T05:02:39.924Z,9.52
2019-03-21T05:05:16.001Z,9.63
2019-03-21T05:07:51.920Z,9.37
2019-03-21T05:10:27.905Z,9.55
2019-03-21T05:13:03.722Z,9.45
2019-03-21T05:15:40.846Z,9.41
2019-03-21T05:18:24.383Z,9.49
2019-03-21T05:21:01.321Z,9.61
2019-03-21T05:23:37.119Z,9.63
2019-03-21T05:26:12.836Z,9.39
2019-03-21T05:28:48.581Z,9.53
2019-03-21T05:31:31.836Z,9.53
2019-03-21T05:34:07.837Z,9.52
2019-03-21T05:36:43.550Z,9.43
2019-03-21T05:39:19.287Z,9.37
2019-03-21T05:41:57.822Z,9.51
2019-03-21T05:44:42.363Z,9.55
2019-03-21T05:47:18.115Z,9.52
2019-03-21T05:49:54.219Z,9.47
2019-03-21T05:52:31.067Z,9.62
2019-03-21T05:55:07.526Z,9.60
2019-03-21T05:57:44.205Z,9.73
2019-03-21T06:00:28.314Z,9.62
2019-03-21T06:03:04.336Z,9.54
2019-03-21T06:05:41.945Z,9.73
2019-03-21T06:08:25.491Z,9.81
2019-03-21T06:11:01.179Z,9.86
2019-03-21T06:13:36.812Z,9.73
2019-03-21T06:16:13.374Z,9.67
2019-03-21T06:19:00.443Z,9.67
2019-03-21T06:22:33.801Z,9.74
2019-03-21T06:26:05.908Z,9.79
2019-03-21T06:28:41.656Z,9.78
2019-03-21T06:31:17.320Z,9.91
2019-03-21T06:33:53.032Z,10.02
2019-03-21T06:36:28.741Z,9.87
2019-03-21T06:39:06.203Z,9.80
2019-03-21T06:41:41.834Z,9.82
2019-03-21T06:44:17.654Z,9.80
2019-03-21T06:46:53.384Z,9.80
2019-03-21T06:49:29.199Z,9.97
2019-03-21T06:52:04.965Z,10.01
2019-03-21T06:54:42.600Z,9.98
2019-03-21T06:57:19.322Z,10.08
2019-03-21T06:59:55.138Z,10.20
2019-03-21T07:02:31.020Z,10.09
2019-03-21T07:05:07.692Z,9.95
2019-03-21T07:07:43.425Z,10.02
2019-03-21T07:10:19.322Z,10.22
2019-03-21T07:12:55.088Z,10.37
2019-03-21T07:15:30.896Z,10.49
2019-03-21T07:18:07.096Z,10.63
2019-03-21T07:20:42.880Z,10.72
2019-03-21T07:23:18.724Z,10.61
2019-03-21T07:25:54.380Z,10.36
2019-03-21T07:28:32.471Z,10.54
2019-03-21T07:31:08.168Z,10.44
2019-03-21T07:33:44.012Z,10.26
2019-03-21T07:36:19.830Z,10.50
2019-03-21T07:38:55.677Z,10.54
2019-03-21T07:41:31.509Z,10.46
2019-03-21T07:44:07.202Z,10.47
2019-03-21T07:46:45.468Z,10.40
2019-03-21T07:49:21.239Z,10.47
2019-03-21T07:51:56.958Z,10.48
2019-03-21T07:54:32.824Z,10.66
2019-03-21T07:57:08.597Z,10.74
2019-03-21T07:59:44.409Z,10.80
2019-03-21T08:02:20.216Z,11.05
2019-03-21T08:04:55.858Z,11.10
2019-03-21T08:07:31.750Z,11.41
2019-03-21T08:10:08.989Z,11.44
2019-03-21T08:12:46.099Z,11.40
2019-03-21T08:15:21.825Z,11.24
2019-03-21T08:17:57.718Z,11.33
2019-03-21T08:20:33.709Z,11.36
2019-03-21T08:23:14.490Z,11.61
2019-03-21T08:25:50.285Z,11.49
2019-03-21T08:28:26.031Z,11.72
2019-03-21T08:31:32.581Z,11.96
2019-03-21T08:34:08.376Z,11.95
2019-03-21T08:36:44.218Z,11.83
2019-03-21T08:39:20.031Z,12.07
2019-03-21T08:41:55.803Z,11.89
2019-03-21T08:44:31.698Z,11.73
2019-03-21T08:47:08.421Z,11.66
2019-03-21T08:49:44.309Z,11.67
2019-03-21T08:52:20.070Z,11.45
2019-03-21T08:54:55.731Z,11.57
2019-03-21T08:57:31.457Z,11.64
2019-03-21T09:00:07.688Z,11.96
2019-03-21T09:02:43.513Z,11.91
2019-03-21T09:05:19.291Z,11.86
2019-03-21T09:07:55.121Z,11.81
2019-03-21T09:10:34.345Z,11.94
2019-03-21T09:13:09.361Z,11.76
2019-03-21T09:15:46.056Z,11.80
2019-03-21T09:18:23.001Z,11.96
2019-03-21T09:20:58.924Z,11.90
2019-03-21T09:23:34.734Z,11.95
2019-03-21T09:26:10.508Z,12.00
2019-03-21T09:28:46.323Z,12.07
2019-03-21T09:31:22.155Z,11.80
2019-03-21T09:33:58.946Z,11.86
2019-03-21T09:36:34.861Z,11.88
2019-03-21T09:39:10.882Z,12.02
2019-03-21T09:41:46.716Z,12.18
2019-03-21T09:44:29.773Z,12.54
2019-03-21T09:47:05.428Z,12.66
2019-03-21T09:49:41.171Z,12.61
2019-03-21T09:52:17.010Z,12.82
2019-03-21T09:54:52.949Z,12.87
2019-03-21T09:57:28.883Z,12.82
2019-03-21T10:00:07.605Z,12.69
2019-03-21T10:02:43.369Z,12.82
2019-03-21T10:05:19.144Z,12.71
2019-03-21T10:07:54.909Z,12.64
2019-03-21T10:10:33.192Z,12.45
2019-03-21T10:13:09.078Z,12.53
2019-03-21T10:15:44.977Z,12.49
2019-03-21T10:18:20.823Z,12.32
2019-03-21T10:20:56.455Z,12.58
2019-03-21T10:23:32.325Z,12.78
2019-03-21T10:26:08.106Z,12.65
2019-03-21T10:28:43.895Z,12.65
2019-03-21T10:31:19.816Z,12.74
2019-03-21T10:33:55.643Z,12.64
2019-03-21T10:36:31.462Z,12.75
2019-03-21T10:39:09.009Z,12.85
2019-03-21T10:41:47.022Z,12.48
2019-03-21T10:44:23.797Z,12.34
2019-03-21T10:46:59.909Z,12.55
2019-03-21T10:49:35.756Z,12.72
2019-03-21T10:52:11.527Z,12.65
2019-03-21T10:54:47.297Z,12.37
2019-03-21T10:57:23.073Z,12.58
2019-03-21T11:00:01.619Z,12.65
2019-03-21T11:02:36.585Z,12.70
2019-03-21T11:05:13.531Z,12.48
2019-03-21T11:07:49.245Z,12.54
2019-03-21T11:10:25.124Z,12.67
2019-03-21T11:13:00.902Z,12.60
2019-03-21T11:15:37.493Z,12.78
2019-03-21T11:18:13.331Z,12.67
2019-03-21T11:20:49.143Z,12.68
2019-03-21T11:23:24.881Z,12.78
2019-03-21T11:26:00.718Z,13.08
2019-03-21T11:28:36.439Z,12.97
2019-03-21T11:31:12.201Z,12.91
2019-03-21T11:33:48.869Z,12.76
2019-03-21T11:36:24.735Z,12.76
2019-03-21T11:39:00.479Z,13.16
2019-03-21T11:41:36.612Z,13.32
2019-03-21T11:44:12.426Z,13.21
2019-03-21T11:46:48.153Z,13.22
2019-03-21T11:49:23.989Z,13.32
2019-03-21T11:51:59.865Z,13.54
2019-03-21T11:54:35.840Z,13.46
2019-03-21T11:57:11.601Z,13.34
2019-03-21T11:59:51.913Z,13.00
2019-03-21T12:02:27.442Z,13.29
2019-03-21T12:05:02.535Z,13.28
2019-03-21T12:07:39.325Z,13.18
2019-03-21T12:10:16.896Z,13.13
2019-03-21T12:12:52.766Z,13.15
2019-03-21T12:15:28.649Z,13.52
2019-03-21T12:18:04.411Z,13.29
2019-03-21T12:20:40.303Z,13.61
2019-03-21T12:23:15.973Z,13.54
2019-03-21T12:25:51.857Z,13.55
2019-03-21T12:28:27.677Z,13.69
2019-03-21T12:31:03.452Z,13.83
2019-03-21T12:33:39.310Z,13.72
2019-03-21T12:36:15.129Z,13.79
2019-03-21T12:38:50.871Z,13.44
2019-03-21T12:41:26.763Z,13.42
2019-03-21T12:44:04.216Z,13.30
2019-03-21T12:46:40.167Z,13.47
2019-03-21T12:49:15.901Z,13.32
2019-03-21T12:51:51.742Z,13.47
2019-03-21T12:54:27.678Z,13.39
2019-03-21T12:57:04.718Z,13.73
2019-03-21T12:59:40.569Z,13.64
2019-03-21T13:02:17.707Z,13.64
2019-03-21T13:04:53.508Z,13.85
2019-03-21T13:07:29.275Z,13.91
2019-03-21T13:10:07.595Z,13.94
2019-03-21T13:12:43.388Z,13.79
2019-03-21T13:15:29.475Z,13.74
2019-03-21T13:17:56.695Z,13.79
2019-03-21T13:20:32.702Z,13.82
2019-03-21T13:23:08.710Z,13.75
2019-03-21T13:25:44.469Z,14.42
2019-03-21T13:28:20.252Z,14.27
2019-03-21T13:30:56.000Z,14.70
2019-03-21T13:33:31.831Z,14.45
2019-03-21T13:36:07.927Z,14.66
2019-03-21T13:38:44.769Z,14.28
2019-03-21T13:41:20.527Z,14.49
2019-03-21T13:43:56.314Z,14.56
2019-03-21T13:46:32.201Z,14.56
2019-03-21T13:49:08.579Z,14.55
2019-03-21T13:51:44.397Z,14.42
2019-03-21T13:54:20.202Z,14.53
2019-03-21T13:56:56.060Z,14.52
2019-03-21T13:59:31.875Z,14.49
2019-03-21T14:02:10.402Z,14.45
2019-03-21T14:04:46.139Z,14.40
2019-03-21T14:07:21.913Z,14.27
2019-03-21T14:09:57.716Z,14.15
2019-03-21T14:12:33.636Z,13.94
2019-03-21T14:15:10.020Z,14.17
2019-03-21T14:17:45.935Z,14.14
2019-03-21T14:20:21.947Z,14.08
2019-03-21T14:22:57.887Z,14.34
2019-03-21T14:25:33.845Z,13.97
2019-03-21T14:28:09.693Z,14.27
2019-03-21T14:30:47.434Z,14.42
2019-03-21T14:33:24.227Z,14.46
2019-03-21T14:36:00.103Z,14.25
2019-03-21T14:38:35.943Z,14.23
2019-03-21T14:41:11.976Z,14.18
2019-03-21T14:43:47.808Z,14.22
2019-03-21T14:46:23.559Z,14.23
2019-03-21T14:48:59.429Z,14.23
2019-03-21T14:51:36.183Z,14.26
2019-03-21T14:54:12.130Z,14.34
2019-03-21T14:56:47.901Z,14.37
2019-03-21T14:59:23.780Z,14.48
2019-03-21T15:01:59.732Z,14.43
2019-03-21T15:04:36.676Z,14.27
2019-03-21T15:07:13.097Z,14.51
2019-03-21T15:09:48.921Z,14.40
2019-03-21T15:12:25.805Z,14.37
2019-03-21T15:15:02.604Z,14.34
2019-03-21T15:17:38.703Z,14.19
2019-03-21T15:20:17.878Z,14.10
2019-03-21T15:22:56.949Z,13.96
2019-03-21T15:25:32.371Z,13.74
2019-03-21T15:28:09.142Z,13.92
2019-03-21T15:30:44.975Z,14.01
2019-03-21T15:33:20.928Z,13.84
2019-03-21T15:35:57.774Z,13.77
2019-03-21T15:38:33.822Z,13.61
2019-03-21T15:41:09.607Z,13.78
2019-03-21T15:43:45.435Z,13.78
2019-03-21T15:46:21.404Z,13.77
2019-03-21T15:48:58.331Z,13.71
2019-03-21T15:51:34.288Z,13.90
2019-03-21T15:54:10.106Z,13.71
2019-03-21T15:56:45.753Z,13.79
2019-03-21T15:59:21.514Z,13.61
2019-03-21T16:01:57.310Z,13.66
2019-03-21T16:04:34.067Z,13.51
2019-03-21T16:07:09.885Z,13.56
2019-03-21T16:09:45.760Z,13.45
2019-03-21T16:12:21.544Z,13.50
2019-03-21T16:14:57.377Z,13.41
2019-03-21T16:17:36.606Z,13.58
2019-03-21T16:20:12.725Z,13.38
2019-03-21T16:22:48.590Z,13.48
2019-03-21T16:25:24.446Z,13.46
2019-03-21T16:28:00.364Z,13.59
2019-03-21T16:30:37.917Z,13.55
2019-03-21T16:33:13.647Z,13.31
2019-03-21T16:35:49.453Z,13.34
2019-03-21T16:38:25.341Z,13.34
2019-03-21T16:41:01.270Z,13.22
2019-03-21T16:43:37.082Z,13.14
2019-03-21T16:46:12.923Z,13.11
2019-03-21T16:48:49.198Z,13.06
2019-03-21T16:51:25.027Z,12.96
2019-03-21T16:54:00.732Z,12.94
2019-03-21T16:56:36.787Z,12.75
2019-03-21T16:59:13.049Z,12.71
2019-03-21T17:01:48.855Z,12.67
2019-03-21T17:04:24.595Z,12.47
2019-03-21T17:07:00.348Z,12.51
2019-03-21T17:09:36.256Z,12.45
2019-03-21T17:12:13.238Z,12.44
2019-03-21T17:14:49.051Z,12.36
2019-03-21T17:17:25.074Z,12.25
2019-03-21T17:20:03.624Z,12.32
2019-03-21T17:22:39.246Z,12.35
2019-03-21T17:25:15.266Z,12.14
2019-03-21T17:27:54.819Z,11.99
2019-03-21T17:30:31.001Z,11.97
2019-03-21T17:33:06.918Z,11.89
2019-03-21T17:35:42.736Z,11.98
2019-03-21T17:38:18.559Z,11.93
2019-03-21T17:40:54.308Z,11.90
2019-03-21T17:43:30.075Z,11.83
2019-03-21T17:46:05.868Z,11.75
2019-03-21T17:48:42.181Z,11.69
2019-03-21T17:51:18.006Z,11.57
2019-03-21T17:53:53.802Z,11.56
2019-03-21T17:56:29.510Z,11.63
2019-03-21T17:59:05.300Z,11.70
2019-03-21T18:01:41.220Z,11.54
2019-03-21T18:04:17.095Z,11.68
2019-03-21T18:06:52.916Z,11.68
2019-03-21T18:09:29.619Z,11.40
2019-03-21T18:12:05.442Z,11.51
2019-03-21T18:14:41.193Z,11.56
2019-03-21T18:17:16.996Z,11.55
2019-03-21T18:19:52.842Z,11.36
2019-03-21T18:22:28.561Z,11.37
2019-03-21T18:25:04.815Z,11.49
2019-03-21T18:27:40.526Z,11.49
2019-03-21T18:30:17.563Z,11.53
2019-03-21T18:32:54.408Z,11.33
2019-03-21T18:35:30.237Z,11.23
2019-03-21T18:38:06.224Z,11.37
2019-03-21T18:40:41.964Z,11.31
2019-03-21T18:43:17.721Z,11.21
2019-03-21T18:45:53.549Z,11.25
2019-03-21T18:48:29.488Z,11.21
2019-03-21T18:51:05.194Z,11.30
2019-03-21T18:53:40.963Z,11.35
2019-03-21T18:56:16.736Z,11.22
2019-03-21T18:58:52.620Z,11.31
2019-03-21T19:01:28.404Z,11.25
2019-03-21T19:04:04.241Z,11.12
2019-03-21T19:06:40.140Z,11.40
2019-03-21T19:09:16.355Z,11.31
2019-03-21T19:11:52.165Z,11.30
2019-03-21T19:14:28.083Z,11.36
2019-03-21T19:17:03.850Z,11.27
2019-03-21T19:19:39.595Z,11.28
2019-03-21T19:22:15.334Z,11.37
2019-03-21T19:24:51.210Z,11.22
2019-03-21T19:27:26.982Z,11.27
2019-03-21T19:30:02.849Z,11.16
2019-03-21T19:32:38.698Z,11.16
2019-03-21T19:35:17.399Z,11.17
2019-03-21T19:37:53.882Z,11.26
2019-03-21T19:40:29.669Z,11.23
2019-03-21T19:43:05.380Z,11.11
2019-03-21T19:45:41.139Z,11.00
2019-03-21T19:48:18.723Z,11.09
2019-03-21T19:50:57.259Z,11.17
2019-03-21T19:53:34.209Z,11.07
2019-03-21T19:56:10.501Z,11.21
2019-03-21T19:58:46.259Z,11.24
2019-03-21T20:01:22.134Z,11.04
2019-03-21T20:03:57.883Z,11.27
2019-03-21T20:06:33.660Z,11.16
2019-03-21T20:09:10.419Z,11.15
2019-03-21T20:11:46.175Z,11.17
2019-03-21T20:14:22.068Z,10.93
2019-03-21T20:16:57.870Z,10.92
2019-03-21T20:19:34.490Z,10.84
2019-03-21T20:22:11.660Z,10.98
2019-03-21T20:24:47.644Z,11.10
2019-03-21T20:27:23.462Z,11.04
2019-03-21T20:29:59.261Z,11.13
2019-03-21T20:32:35.068Z,11.15
2019-03-21T20:35:11.165Z,11.07
2019-03-21T20:37:48.217Z,10.95
2019-03-21T20:40:23.945Z,10.96
2019-03-21T20:42:59.714Z,10.91
2019-03-21T20:45:35.561Z,10.93
2019-03-21T20:48:11.790Z,10.84
2019-03-21T20:50:47.661Z,10.72
2019-03-21T20:53:23.490Z,10.55
2019-03-21T20:55:59.755Z,10.61
2019-03-21T20:58:35.583Z,10.56
2019-03-21T21:01:11.644Z,10.36
2019-03-21T21:03:47.435Z,10.18
2019-03-21T21:06:24.015Z,10.14
2019-03-21T21:08:59.975Z,10.05
2019-03-21T21:11:36.026Z,9.83
2019-03-21T21:14:11.830Z,9.74
2019-03-21T21:16:47.561Z,9.77
2019-03-21T21:19:23.421Z,9.86
2019-03-21T21:21:59.184Z,9.90
2019-03-21T21:24:34.866Z,9.93
2019-03-21T21:27:10.666Z,10.07
2019-03-21T21:29:46.523Z,10.02
2019-03-21T21:32:24.925Z,10.23
2019-03-21T21:35:00.690Z,10.23
2019-03-21T21:37:37.633Z,10.30
2019-03-21T21:40:13.850Z,10.38
2019-03-21T21:42:49.603Z,10.44
2019-03-21T21:45:25.318Z,10.41
2019-03-21T21:48:01.143Z,10.44
2019-03-21T21:50:36.905Z,10.51
2019-03-21T21:53:15.030Z,10.57
2019-03-21T21:55:51.714Z,10.62
2019-03-21T21:58:27.443Z,10.60
2019-03-21T22:01:04.326Z,10.62
2019-03-21T22:03:40.073Z,10.66
2019-03-21T22:06:15.926Z,10.59
2019-03-21T22:08:51.685Z,10.70
2019-03-21T22:11:27.609Z,10.73
2019-03-21T22:14:03.409Z,10.73
2019-03-21T22:16:39.147Z,10.69
2019-03-21T22:19:14.891Z,10.63
2019-03-21T22:21:50.610Z,10.68
2019-03-21T22:24:27.425Z,10.66
2019-03-21T22:27:03.182Z,10.77
2019-03-21T22:29:40.161Z,10.66
2019-03-21T22:32:15.809Z,10.69
2019-03-21T22:34:51.569Z,10.59
2019-03-21T22:37:27.362Z,10.70
2019-03-21T22:40:03.122Z,10.74
2019-03-21T22:42:39.471Z,10.69
2019-03-21T22:45:17.025Z,10.72
2019-03-21T22:47:52.707Z,10.60
2019-03-21T22:50:28.484Z,10.66
2019-03-21T22:53:04.283Z,10.77
2019-03-21T22:55:40.107Z,10.82
2019-03-21T22:58:15.722Z,10.82
2019-03-21T23:00:53.093Z,10.74
2019-03-21T23:03:28.890Z,10.73
2019-03-21T23:06:04.721Z,10.66
2019-03-21T23:08:40.546Z,10.67
2019-03-21T23:11:16.279Z,10.74
2019-03-21T23:13:53.598Z,10.72
2019-03-21T23:16:29.305Z,10.79
2019-03-21T23:19:05.035Z,10.81
2019-03-21T23:21:40.761Z,10.81
2019-03-21T23:24:16.359Z,10.79
2019-03-21T23:26:53.420Z,10.88
2019-03-21T23:29:30.213Z,10.84
2019-03-21T23:32:06.022Z,10.76
2019-03-21T23:34:41.847Z,10.77
2019-03-21T23:37:17.569Z,10.81
2019-03-21T23:39:53.322Z,10.73
2019-03-21T23:42:29.033Z,10.75
2019-03-21T23:45:05.113Z,10.79
2019-03-21T23:47:43.306Z,10.73
2019-03-21T23:50:21.116Z,10.66
2019-03-21T23:52:59.299Z,10.67
2019-03-21T23:55:37.490Z,10.70
2019-03-21T23:58:13.303Z,10.69
